Погода Милюнына 2 недели

Витебская область, Белоруссия

25 мая-06 июня
  • 25мая
    Сегодня
    +12°
    +26°
    Ясно и безоблачно
    ВремяПогодаТемператураВлажностьДавлениеВетер, м/сВероятность осадков
    00:00Ясно и безоблачно+16°C65 %758 мм3.6 м/с2 %
    03:00Ясно и безоблачно+13°C78 %758 мм2.8 м/с2 %
    06:00Ясно и безоблачно+13°C81 %758 мм2.9 м/с2 %
    09:00Ясно и безоблачно+19°C63 %758 мм2.7 м/с2 %
    12:00Ясно и безоблачно+23°C52 %758 мм3.1 м/с2 %
    15:00Ясно и безоблачно+25°C45 %757 мм3.0 м/с2 %
    18:00Небольшая облачность+24°C47 %757 мм2.3 м/с7 %
    21:00Практически безоблачно+19°C75 %757 мм2.1 м/с3 %
  • 26мая
    Воскресенье
    +13°
    +25°
    Ясно и безоблачно
    ВремяПогодаТемператураВлажностьДавлениеВетер, м/сВероятность осадков
    00:00Ясно и безоблачно+15°C82 %757 мм2.9 м/с2 %
    03:00Ясно и безоблачно+13°C86 %757 мм2.2 м/с2 %
    06:00Ясно и безоблачно+13°C93 %757 мм0.9 м/с2 %
    09:00Ясно и безоблачно+19°C69 %758 мм0.3 м/с2 %
    12:00Ясно и безоблачно+24°C46 %758 мм0.4 м/с2 %
    15:00Ясно и безоблачно+25°C38 %758 мм0.5 м/с2 %
    18:00Практически безоблачно+25°C40 %757 мм0.6 м/с2 %
    21:00Ясно и безоблачно+20°C66 %757 мм2.0 м/с2 %
  • 27мая
    Понедельник
    +13°
    +25°
    Ясно и безоблачно
    ВремяПогодаТемператураВлажностьДавлениеВетер, м/сВероятность осадков
    00:00Ясно и безоблачно+18°C70 %757 мм0.4 м/с2 %
    03:00Облачно с прояснениями+15°C89 %757 мм0.9 м/с2 %
    06:00Облачно с прояснениями+15°C96 %757 мм1.2 м/с2 %
    09:00Ясно и безоблачно+21°C59 %757 мм0.9 м/с2 %
    12:00Ясно и безоблачно+24°C40 %757 мм1.4 м/с2 %
    15:00Ясно и безоблачно+25°C40 %757 мм1.4 м/с3 %
    18:00Ясно и безоблачно+25°C43 %756 мм2.0 м/с13 %
    21:00Ясно и безоблачно+21°C69 %755 мм1.9 м/с8 %
  • 28мая
    Вторник
    +13°
    +26°
    Облачно с прояснениями
    ВремяПогодаТемператураВлажностьДавлениеВетер, м/сВероятность осадков
    00:00Ясно и безоблачно+16°C87 %755 мм2.2 м/с2 %
    03:00Ясно и безоблачно+14°C92 %755 мм2.4 м/с2 %
    06:00Ясно и безоблачно+15°C92 %755 мм1.3 м/с2 %
    09:00Ясно и безоблачно+21°C68 %755 мм0.5 м/с2 %
    12:00Ясно и безоблачно+24°C46 %755 мм1.6 м/с13 %
    15:00Облачно с прояснениями+25°C46 %754 мм1.5 м/с15 %
    18:00Небольшая облачность, возможен дождь с грозой+23°C63 %754 мм2.0 м/с25 %
    21:00Ясно и безоблачно+20°C83 %753 мм1.6 м/с15 %
Мы используем cookies
Соглашаюсь